Princeton's Hourly Summary for Tuesday, March 14, 2017
Hour Temp
(f)
RH
(%)
Solar Rad.
(MJ/m2)
Rainfall
(in)
Wind
(mph)
3/14/2017 12:00 AM 43 46 0 0 3.77
3/14/2017 1:00 AM 40 51 0 0 1.57
3/14/2017 2:00 AM 38 55 0 0 0.09
3/14/2017 3:00 AM 37 62 0 0 0.07
3/14/2017 4:00 AM 35 64 0 0 0.23
3/14/2017 5:00 AM 34 68 0 0 0.24
3/14/2017 6:00 AM 35 67 0 0 1.45
3/14/2017 7:00 AM 34 69 0 0 0.49
3/14/2017 8:00 AM 34 72 0.03 0 1.81
3/14/2017 9:00 AM 36 61 0.56 0 1.74
3/14/2017 10:00 AM 41 50 1.27 0 2.97
3/14/2017 11:00 AM 45 44 1.98 0 3
3/14/2017 12:00 PM 47 40 2.55 0 2.72
3/14/2017 1:00 PM 50 37 2.89 0 2.93
3/14/2017 2:00 PM 53 35 3.01 0 3.21
3/14/2017 3:00 PM 55 32 2.85 0 3.89
3/14/2017 4:00 PM 57 31 2.62 0 3.93
3/14/2017 5:00 PM 58 27 1.67 0 3.9
3/14/2017 6:00 PM 59 28 1.29 0 2.21
3/14/2017 7:00 PM 59 28 0.16 0 0.78
3/14/2017 8:00 PM 56 30 0.03 0 0
3/14/2017 9:00 PM 53 39 0 0 0.64
3/14/2017 10:00 PM 51 48 0 0 0.68
3/14/2017 11:00 PM 50 52 0 0 1.77
Data Summary 45 47 20.91 0.00 1.84